createdAt,value
2023-02-09T00:02:15.049Z,36.20
2023-02-09T00:05:19.415Z,36.63
2023-02-09T00:08:22.356Z,32.93
2023-02-09T00:11:48.289Z,35.90
2023-02-09T00:14:50.514Z,34.77
2023-02-09T00:17:53.453Z,30.97
2023-02-09T00:20:58.972Z,35.07
2023-02-09T00:24:01.934Z,31.47
2023-02-09T00:27:04.905Z,36.53
2023-02-09T00:30:08.839Z,34.27
2023-02-09T00:33:12.019Z,37.83
2023-02-09T00:36:16.997Z,36.93
2023-02-09T00:39:19.947Z,39.00
2023-02-09T00:42:22.858Z,33.97
2023-02-09T00:45:26.328Z,34.77
2023-02-09T00:48:29.971Z,36.63
2023-02-09T00:51:34.681Z,32.90
2023-02-09T00:54:37.752Z,36.60
2023-02-09T00:57:40.717Z,35.23
2023-02-09T01:00:43.976Z,39.20
2023-02-09T01:03:47.128Z,33.73
2023-02-09T01:06:51.428Z,34.87
2023-02-09T01:09:54.354Z,34.97
2023-02-09T01:12:57.309Z,36.67
2023-02-09T01:16:00.251Z,36.53
2023-02-09T01:19:04.769Z,34.37
2023-02-09T01:22:09.257Z,35.87
2023-02-09T01:25:12.445Z,35.17
2023-02-09T01:28:15.426Z,38.80
2023-02-09T01:31:24.973Z,35.13
2023-02-09T01:34:27.979Z,37.33
2023-02-09T01:37:34.058Z,37.20
2023-02-09T01:40:36.997Z,32.80
2023-02-09T01:43:51.298Z,38.60
2023-02-09T01:46:54.273Z,31.67
2023-02-09T01:49:57.406Z,34.43
2023-02-09T01:53:02.407Z,33.10
2023-02-09T01:56:08.850Z,36.67
2023-02-09T01:59:12.597Z,33.17
2023-02-09T02:02:15.973Z,34.77
2023-02-09T02:05:19.598Z,36.83
2023-02-09T02:08:29.354Z,37.43
2023-02-09T02:11:33.013Z,36.20
2023-02-09T02:14:37.777Z,33.70
2023-02-09T02:17:59.772Z,34.73
2023-02-09T02:21:37.304Z,33.13
2023-02-09T02:25:11.725Z,33.50
2023-02-09T02:28:33.869Z,34.73
2023-02-09T02:31:59.829Z,34.57
2023-02-09T02:35:10.648Z,33.60
2023-02-09T02:38:21.200Z,32.67
2023-02-09T02:41:53.545Z,31.23
2023-02-09T02:45:04.682Z,37.93
2023-02-09T02:48:17.603Z,32.53
2023-02-09T02:51:26.971Z,35.13
2023-02-09T02:54:35.238Z,31.00
2023-02-09T02:57:41.764Z,36.97
2023-02-09T03:00:49.204Z,33.03
2023-02-09T03:03:54.950Z,32.10
2023-02-09T03:06:57.873Z,31.97
2023-02-09T03:10:03.055Z,31.30
2023-02-09T03:13:16.859Z,31.83
2023-02-09T03:16:27.083Z,30.60
2023-02-09T03:19:39.686Z,36.40
2023-02-09T03:22:47.310Z,32.87
2023-02-09T03:25:53.423Z,28.73
2023-02-09T03:28:59.758Z,31.83
2023-02-09T03:32:02.858Z,28.37
2023-02-09T03:35:09.256Z,29.60
2023-02-09T03:38:12.156Z,32.23
2023-02-09T03:41:15.238Z,26.33
2023-02-09T03:44:30.194Z,32.20
2023-02-09T03:47:33.136Z,31.07
2023-02-09T03:50:38.262Z,33.90
2023-02-09T03:53:41.462Z,28.93
2023-02-09T03:56:44.519Z,33.27
2023-02-09T03:59:47.440Z,28.20
2023-02-09T04:02:50.493Z,26.77
2023-02-09T04:05:54.791Z,29.00
2023-02-09T04:08:57.852Z,25.77
2023-02-09T04:12:00.936Z,24.63
2023-02-09T04:15:04.499Z,27.00
2023-02-09T04:18:07.473Z,25.83
2023-02-09T04:21:11.876Z,29.83
2023-02-09T04:24:14.811Z,26.27
2023-02-09T04:27:17.720Z,29.60
2023-02-09T04:30:20.977Z,28.40
2023-02-09T04:33:25.410Z,32.10
2023-02-09T04:36:29.775Z,29.70
2023-02-09T04:39:32.696Z,27.07
2023-02-09T04:42:35.665Z,27.03
2023-02-09T04:45:39.680Z,27.73
2023-02-09T04:48:42.773Z,32.70
2023-02-09T04:51:47.045Z,28.57
2023-02-09T04:54:49.969Z,28.07
2023-02-09T04:58:10.534Z,26.40
2023-02-09T05:01:16.367Z,27.57
2023-02-09T05:04:19.429Z,26.07
2023-02-09T05:07:26.388Z,23.97
2023-02-09T05:10:29.293Z,26.97
2023-02-09T05:13:32.365Z,25.77
2023-02-09T05:16:36.026Z,22.20
2023-02-09T05:19:39.990Z,23.63
2023-02-09T05:22:44.266Z,22.07
2023-02-09T05:25:48.337Z,24.17
2023-02-09T05:28:51.286Z,22.53
2023-02-09T05:31:54.249Z,23.07
2023-02-09T05:34:57.230Z,23.50
2023-02-09T05:38:01.592Z,20.97
2023-02-09T05:41:05.849Z,19.60
2023-02-09T05:44:09.270Z,21.73
2023-02-09T05:47:12.904Z,18.97
2023-02-09T05:50:16.316Z,21.07
2023-02-09T05:53:20.608Z,20.03
2023-02-09T05:56:23.581Z,25.40
2023-02-09T05:59:26.534Z,18.67
2023-02-09T06:02:29.500Z,22.20
2023-02-09T06:05:32.497Z,19.73
2023-02-09T06:08:36.812Z,24.57
2023-02-09T06:11:39.757Z,15.90
2023-02-09T06:14:42.697Z,21.30
2023-02-09T06:17:46.299Z,20.23
2023-02-09T06:20:49.248Z,19.13
2023-02-09T06:23:53.536Z,20.03
2023-02-09T06:26:57.606Z,20.47
2023-02-09T06:30:00.597Z,17.70
2023-02-09T06:33:03.641Z,22.97
2023-02-09T06:36:08.712Z,18.67
2023-02-09T06:39:13.002Z,19.70
2023-02-09T06:42:15.930Z,21.20
2023-02-09T06:45:19.402Z,17.87
2023-02-09T06:48:22.464Z,16.90
2023-02-09T06:51:25.628Z,15.10
2023-02-09T06:54:30.184Z,14.93
2023-02-09T06:57:34.786Z,13.87
2023-02-09T07:00:37.689Z,12.00
2023-02-09T07:03:40.622Z,15.80
2023-02-09T07:06:43.554Z,12.40
2023-02-09T07:09:47.828Z,13.53
2023-02-09T07:12:50.769Z,11.03
2023-02-09T07:15:57.186Z,12.70
2023-02-09T07:19:00.936Z,9.67
2023-02-09T07:22:03.883Z,12.47
2023-02-09T07:25:08.786Z,10.50
2023-02-09T07:28:11.784Z,11.40
2023-02-09T07:31:16.207Z,14.13
2023-02-09T07:34:19.304Z,11.77
2023-02-09T07:37:22.464Z,11.73
2023-02-09T07:40:27.090Z,12.87
2023-02-09T07:43:30.394Z,12.10
2023-02-09T07:46:33.550Z,14.00
2023-02-09T07:49:36.695Z,12.23
2023-02-09T07:52:39.760Z,13.27
2023-02-09T07:55:44.313Z,10.47
2023-02-09T07:58:47.427Z,11.07
2023-02-09T08:01:51.505Z,11.30
2023-02-09T08:05:01.507Z,13.20
2023-02-09T08:08:04.591Z,11.20
2023-02-09T08:11:08.925Z,14.63
2023-02-09T08:14:15.062Z,10.57
2023-02-09T08:17:21.128Z,12.33
2023-02-09T08:20:26.704Z,10.80
2023-02-09T08:23:33.293Z,11.37
2023-02-09T08:26:37.775Z,11.47
2023-02-09T08:29:40.908Z,10.07
2023-02-09T08:32:44.034Z,12.83
2023-02-09T08:35:48.043Z,12.43
2023-02-09T08:38:51.234Z,12.77
2023-02-09T08:41:55.595Z,12.87
2023-02-09T08:44:58.598Z,11.07
2023-02-09T08:48:01.582Z,12.47
2023-02-09T08:51:05.429Z,12.97
2023-02-09T08:54:08.464Z,11.17
2023-02-09T08:57:12.790Z,12.60
2023-02-09T09:00:16.866Z,12.83
2023-02-09T09:03:19.893Z,11.27
2023-02-09T09:06:22.981Z,11.27
2023-02-09T09:09:26.141Z,11.30
2023-02-09T09:12:31.072Z,11.80
2023-02-09T09:15:35.857Z,11.50
2023-02-09T09:18:38.803Z,9.40
2023-02-09T09:21:41.742Z,11.93
2023-02-09T09:24:44.691Z,11.00
2023-02-09T09:27:48.957Z,11.00
2023-02-09T09:30:51.943Z,10.70
2023-02-09T09:33:56.093Z,9.53
2023-02-09T09:36:59.017Z,12.10
2023-02-09T09:40:01.973Z,15.47
2023-02-09T09:43:10.331Z,11.10
2023-02-09T09:46:18.260Z,11.03
2023-02-09T09:49:25.950Z,13.03
2023-02-09T09:52:33.329Z,10.63
2023-02-09T09:55:39.272Z,14.23
2023-02-09T09:58:45.573Z,14.70
2023-02-09T10:01:50.099Z,10.70
2023-02-09T10:04:53.291Z,11.33
2023-02-09T10:08:00.786Z,12.10
2023-02-09T10:11:06.398Z,12.17
2023-02-09T10:14:11.698Z,11.60
2023-02-09T10:17:14.609Z,12.10
2023-02-09T10:20:18.476Z,10.43
2023-02-09T10:23:25.086Z,10.57
2023-02-09T10:26:30.942Z,8.93
2023-02-09T10:29:36.720Z,11.33
2023-02-09T10:32:44.249Z,12.57
2023-02-09T10:35:51.804Z,10.07
2023-02-09T10:39:03.157Z,10.43
2023-02-09T10:42:19.553Z,11.17
2023-02-09T10:45:27.960Z,12.23
2023-02-09T10:48:41.584Z,11.47
2023-02-09T10:51:44.547Z,14.30
2023-02-09T10:54:50.525Z,8.83
2023-02-09T10:58:04.413Z,8.90
2023-02-09T11:01:18.636Z,10.30
2023-02-09T11:04:24.071Z,10.00
2023-02-09T11:07:34.153Z,11.60
2023-02-09T11:10:42.779Z,12.63
2023-02-09T11:13:45.704Z,9.57
2023-02-09T11:16:55.787Z,12.63
2023-02-09T11:20:28.814Z,10.23
2023-02-09T11:23:46.274Z,13.40
2023-02-09T11:26:54.264Z,12.23
2023-02-09T11:30:12.384Z,9.87
2023-02-09T11:33:22.888Z,11.37
2023-02-09T11:36:40.926Z,10.77
2023-02-09T11:39:50.776Z,10.37
2023-02-09T11:43:00.775Z,8.00
2023-02-09T11:46:06.565Z,10.87
2023-02-09T11:49:18.564Z,11.17
2023-02-09T11:52:29.302Z,9.77
2023-02-09T11:55:38.268Z,10.17
2023-02-09T11:58:49.754Z,9.43
2023-02-09T12:01:57.907Z,10.50
2023-02-09T12:05:03.314Z,13.43
2023-02-09T12:08:26.275Z,19.33
2023-02-09T12:11:40.664Z,11.57
2023-02-09T12:15:01.063Z,10.57
2023-02-09T12:18:07.267Z,14.73
2023-02-09T12:21:11.680Z,12.47
2023-02-09T12:24:33.881Z,11.43
2023-02-09T12:27:38.994Z,14.93
2023-02-09T12:31:02.573Z,12.10
2023-02-09T12:34:15.697Z,10.40
2023-02-09T12:37:28.076Z,11.33
2023-02-09T12:40:39.018Z,8.80
2023-02-09T12:43:44.243Z,9.47
2023-02-09T12:46:54.602Z,12.07
2023-02-09T12:50:04.675Z,12.43
2023-02-09T12:53:48.630Z,9.67
2023-02-09T12:56:51.698Z,10.23
2023-02-09T13:00:34.438Z,11.23
2023-02-09T13:03:44.918Z,10.17
2023-02-09T13:06:52.637Z,9.67
2023-02-09T13:10:01.681Z,12.77
2023-02-09T13:13:07.777Z,11.63
2023-02-09T13:16:40.598Z,12.80
2023-02-09T13:19:56.254Z,11.03
2023-02-09T13:23:14.204Z,12.20
2023-02-09T13:26:21.943Z,14.73
2023-02-09T13:29:27.321Z,11.60
2023-02-09T13:32:42.794Z,12.67
2023-02-09T13:36:00.353Z,10.33
2023-02-09T13:39:07.107Z,14.43
2023-02-09T13:42:20.088Z,14.10
2023-02-09T13:45:24.913Z,12.10
2023-02-09T13:48:30.144Z,14.47
2023-02-09T13:51:33.068Z,17.73
2023-02-09T13:54:36.507Z,13.37
2023-02-09T13:57:43.445Z,11.67
2023-02-09T14:00:49.647Z,14.13
2023-02-09T14:03:58.711Z,13.37
2023-02-09T14:07:05.118Z,10.27
2023-02-09T14:10:14.136Z,13.17
2023-02-09T14:13:22.861Z,14.30
2023-02-09T14:16:28.635Z,12.37
2023-02-09T14:19:33.100Z,12.73
2023-02-09T14:22:38.245Z,16.60
2023-02-09T14:25:42.138Z,12.70
2023-02-09T14:28:50.029Z,10.43
2023-02-09T14:31:55.116Z,13.23
2023-02-09T14:34:58.185Z,12.33
2023-02-09T14:38:03.737Z,11.17
2023-02-09T14:41:25.762Z,12.83
2023-02-09T14:44:31.091Z,15.97
2023-02-09T14:47:42.044Z,11.93
2023-02-09T14:50:44.996Z,13.63
2023-02-09T14:53:47.959Z,8.93
2023-02-09T14:56:51.556Z,14.97
2023-02-09T14:59:57.050Z,11.03
2023-02-09T15:03:00.546Z,13.50
2023-02-09T15:06:05.646Z,17.53
2023-02-09T15:09:08.922Z,12.40
2023-02-09T15:12:21.650Z,10.93
2023-02-09T15:15:27.124Z,13.37
2023-02-09T15:18:30.100Z,10.37
2023-02-09T15:21:33.282Z,13.90
2023-02-09T15:24:36.274Z,11.13
2023-02-09T15:27:43.014Z,12.43
2023-02-09T15:30:47.584Z,16.43
2023-02-09T15:33:50.734Z,15.67
2023-02-09T15:36:53.752Z,13.77
2023-02-09T15:39:59.710Z,19.73
2023-02-09T15:43:20.507Z,13.67
2023-02-09T15:46:42.343Z,10.50
2023-02-09T15:49:45.302Z,13.77
2023-02-09T15:52:48.367Z,13.97
2023-02-09T15:55:51.292Z,14.77
2023-02-09T15:58:57.112Z,15.47
2023-02-09T16:02:01.464Z,12.50
2023-02-09T16:05:04.653Z,13.60
2023-02-09T16:08:09.870Z,12.47
2023-02-09T16:11:19.669Z,12.37
2023-02-09T16:14:25.144Z,13.03
2023-02-09T16:17:29.466Z,12.03
2023-02-09T16:20:32.969Z,14.27
2023-02-09T16:23:36.306Z,14.57
2023-02-09T16:26:39.266Z,13.87
2023-02-09T16:29:42.276Z,11.47
2023-02-09T16:32:47.044Z,14.60
2023-02-09T16:35:54.141Z,13.73
2023-02-09T16:38:57.120Z,12.93
2023-02-09T16:42:00.930Z,12.63
2023-02-09T16:45:03.976Z,12.23
2023-02-09T16:48:14.755Z,13.00
2023-02-09T16:51:17.877Z,15.67
2023-02-09T16:54:20.912Z,13.23
2023-02-09T16:57:25.795Z,15.23
2023-02-09T17:00:31.305Z,14.73
2023-02-09T17:03:37.915Z,13.27
2023-02-09T17:06:41.312Z,16.77
2023-02-09T17:09:44.266Z,13.07
2023-02-09T17:12:47.389Z,13.73
2023-02-09T17:15:52.610Z,12.03
2023-02-09T17:19:00.834Z,16.37
2023-02-09T17:22:09.722Z,12.53
2023-02-09T17:25:16.855Z,13.13
2023-02-09T17:28:20.121Z,14.37
2023-02-09T17:31:24.932Z,14.83
2023-02-09T17:34:29.795Z,14.67
2023-02-09T17:37:32.766Z,12.63
2023-02-09T17:40:37.309Z,11.43
2023-02-09T17:43:40.291Z,12.60
2023-02-09T17:46:43.368Z,18.00
2023-02-09T17:49:47.912Z,14.57
2023-02-09T17:52:51.978Z,12.23
2023-02-09T17:55:56.365Z,13.30
2023-02-09T17:59:02.992Z,12.97
2023-02-09T18:02:14.952Z,14.83
2023-02-09T18:05:21.975Z,16.27
2023-02-09T18:08:25.427Z,13.83
2023-02-09T18:11:56.194Z,16.73
2023-02-09T18:14:59.256Z,15.73
2023-02-09T18:18:02.298Z,13.80
2023-02-09T18:21:07.002Z,17.00
2023-02-09T18:24:11.132Z,15.13
2023-02-09T18:27:18.318Z,14.53
2023-02-09T18:30:22.594Z,15.97
2023-02-09T18:33:25.522Z,17.73
2023-02-09T18:36:29.838Z,16.03
2023-02-09T18:39:35.730Z,15.13
2023-02-09T18:42:38.757Z,15.97
2023-02-09T18:45:41.738Z,16.77
2023-02-09T18:48:44.687Z,17.93
2023-02-09T18:51:49.025Z,15.43
2023-02-09T18:54:52.154Z,15.63
2023-02-09T18:57:55.095Z,21.93
2023-02-09T19:00:58.065Z,17.90
2023-02-09T19:04:01.000Z,15.80
2023-02-09T19:07:06.296Z,16.50
2023-02-09T19:10:11.232Z,15.37
2023-02-09T19:13:14.222Z,19.53
2023-02-09T19:16:17.263Z,15.43
2023-02-09T19:19:20.801Z,19.43
2023-02-09T19:22:25.933Z,16.20
2023-02-09T19:25:30.343Z,17.90
2023-02-09T19:28:35.001Z,17.23
2023-02-09T19:31:38.056Z,17.80
2023-02-09T19:34:43.181Z,17.33
2023-02-09T19:37:50.312Z,18.43
2023-02-09T19:41:08.531Z,21.50
2023-02-09T19:44:13.624Z,19.77
2023-02-09T19:47:16.890Z,19.23
2023-02-09T19:50:19.905Z,18.10
2023-02-09T19:53:24.319Z,17.67
2023-02-09T19:56:28.098Z,18.53
2023-02-09T19:59:31.178Z,18.77
2023-02-09T20:02:34.157Z,18.20
2023-02-09T20:05:40.588Z,28.13
2023-02-09T20:08:44.941Z,18.80
2023-02-09T20:14:56.028Z,24.33
2023-02-09T20:17:59.058Z,22.77
2023-02-09T20:21:02.104Z,21.17
2023-02-09T20:24:09.599Z,23.53
2023-02-09T20:27:13.061Z,23.13
2023-02-09T20:30:16.530Z,25.40
2023-02-09T20:33:19.568Z,21.17
2023-02-09T20:36:24.635Z,23.30
2023-02-09T20:39:29.986Z,21.87
2023-02-09T20:42:50.467Z,25.87
2023-02-09T20:46:10.943Z,28.20
2023-02-09T20:49:16.126Z,26.20
2023-02-09T20:52:19.220Z,22.00
2023-02-09T20:55:23.507Z,23.13
2023-02-09T20:58:26.751Z,26.90
2023-02-09T21:01:29.717Z,18.87
2023-02-09T21:04:32.684Z,22.00
2023-02-09T21:07:35.989Z,19.77
2023-02-09T21:10:40.390Z,25.30
2023-02-09T21:13:43.484Z,23.50
2023-02-09T21:16:46.556Z,24.77
2023-02-09T21:19:49.507Z,24.63
2023-02-09T21:22:52.452Z,22.80
2023-02-09T21:26:02.556Z,25.23
2023-02-09T21:29:05.492Z,26.10
2023-02-09T21:32:08.573Z,29.87
2023-02-09T21:35:11.528Z,29.40
2023-02-09T21:38:14.514Z,30.83
2023-02-09T21:41:38.363Z,27.17
2023-02-09T21:44:41.525Z,22.73
2023-02-09T21:47:44.785Z,26.73
2023-02-09T21:50:47.728Z,24.83
2023-02-09T21:53:51.094Z,30.33
2023-02-09T21:56:55.357Z,21.07
2023-02-09T21:59:59.853Z,30.97
2023-02-09T22:03:02.836Z,25.37
2023-02-09T22:06:07.101Z,29.73
2023-02-09T22:09:10.063Z,24.53
2023-02-09T22:12:14.367Z,20.27
2023-02-09T22:15:19.064Z,29.37
2023-02-09T22:18:22.054Z,25.30
2023-02-09T22:21:24.989Z,24.53
2023-02-09T22:24:28.021Z,27.83
2023-02-09T22:27:32.292Z,27.20
2023-02-09T22:30:35.488Z,24.47
2023-02-09T22:33:38.587Z,26.50
2023-02-09T22:36:41.626Z,25.03
2023-02-09T22:39:46.471Z,31.43
2023-02-09T22:42:50.750Z,22.63
2023-02-09T22:45:56.314Z,26.37
2023-02-09T22:49:01.582Z,26.07
2023-02-09T22:52:04.577Z,23.50
2023-02-09T22:55:07.694Z,28.17
2023-02-09T22:58:12.038Z,28.10
2023-02-09T23:01:15.472Z,27.37
2023-02-09T23:04:18.527Z,23.17
2023-02-09T23:07:21.524Z,26.47
2023-02-09T23:10:24.469Z,25.97
2023-02-09T23:13:28.785Z,28.83
2023-02-09T23:16:32.341Z,26.67
2023-02-09T23:19:35.358Z,27.27
2023-02-09T23:22:38.297Z,27.20
2023-02-09T23:25:41.212Z,25.67
2023-02-09T23:28:45.696Z,26.07
2023-02-09T23:31:48.769Z,28.70
2023-02-09T23:34:51.793Z,31.10
2023-02-09T23:37:54.773Z,28.73
2023-02-09T23:40:57.780Z,28.57
2023-02-09T23:44:02.449Z,24.37
2023-02-09T23:47:05.584Z,28.63
2023-02-09T23:50:08.930Z,31.90
2023-02-09T23:53:13.560Z,27.00
2023-02-09T23:56:18.504Z,26.90
2023-02-09T23:59:22.920Z,29.93
